Weather at Kampong Cham Airport

Public forecast

Using degrees Celsius for public forecast. Weather courtesy of forecast.io.

Closest aviation weather report (METAR) to Kampong Cham Airport

Closest report is Phnom Penh International Airport, 45.5 nm (84.3 km) SW.

2024/07/13 10:30 (retrieved 16 minutes ago)

VDPP 131030Z 25010KT 9000 -RA SCT015 FEW017CB BKN040 29/24 Q1003 RMK CB

Closest aviation forecast (TAF) to Kampong Cham Airport

Closest forecast is Phnom Penh International Airport, 45.5 nm (84.3 km) SW.

2024/07/13 06:36 (retrieved 4 hours ago)

TAF TAF VDPP 130500Z 1306/1324 25010KT 9999 SCT017 SCT040 TEMPO 1306/1311 27015G27KT 5000 TSRA SCT015 FEW017CB BKN040